createdAt,value
2023-02-03T00:08:02.354Z,84.68
2023-02-03T00:18:02.305Z,84.62
2023-02-03T00:28:02.351Z,84.55
2023-02-03T00:38:02.350Z,84.46
2023-02-03T00:48:02.420Z,84.40
2023-02-03T00:58:02.397Z,84.28
2023-02-03T01:08:02.385Z,84.21
2023-02-03T01:18:02.468Z,84.14
2023-02-03T01:28:02.514Z,84.11
2023-02-03T01:38:02.361Z,84.09
2023-02-03T01:48:04.293Z,84.06
2023-02-03T01:58:04.488Z,83.95
2023-02-03T02:08:04.375Z,83.87
2023-02-03T02:18:04.483Z,83.77
2023-02-03T02:28:04.543Z,83.69
2023-02-03T02:38:08.413Z,83.62
2023-02-03T02:48:08.868Z,83.56
2023-02-03T02:58:09.777Z,83.57
2023-02-03T03:08:09.698Z,83.55
2023-02-03T03:18:09.648Z,83.44
2023-02-03T03:28:09.813Z,83.34
2023-02-03T03:38:10.574Z,83.33
2023-02-03T03:48:10.660Z,83.31
2023-02-03T03:58:10.727Z,83.30
2023-02-03T04:08:10.625Z,83.30
2023-02-03T04:18:10.589Z,83.25
2023-02-03T04:28:10.781Z,83.25
2023-02-03T04:38:10.587Z,83.18
2023-02-03T04:48:10.635Z,83.12
2023-02-03T04:58:10.756Z,83.00
2023-02-03T05:08:10.622Z,82.95
2023-02-03T05:18:10.657Z,82.92
2023-02-03T05:28:10.872Z,82.89
2023-02-03T05:38:10.680Z,82.87
2023-02-03T05:48:10.711Z,82.83
2023-02-03T05:58:10.672Z,82.80
2023-02-03T06:08:10.814Z,82.77
2023-02-03T06:18:10.840Z,82.68
2023-02-03T06:28:10.764Z,82.58
2023-02-03T06:38:10.799Z,82.46
2023-02-03T06:48:10.847Z,82.29
2023-02-03T06:58:10.805Z,82.17
2023-02-03T07:08:10.930Z,82.10
2023-02-03T07:18:11.768Z,82.01
2023-02-03T07:28:14.576Z,81.91
2023-02-03T07:38:14.859Z,81.82
2023-02-03T07:48:14.860Z,81.73
2023-02-03T07:58:38.109Z,81.33
2023-02-03T08:08:38.044Z,81.37
2023-02-03T08:18:38.096Z,81.29
2023-02-03T08:28:38.091Z,81.12
2023-02-03T08:38:38.154Z,81.06
2023-02-03T08:48:38.084Z,80.87
2023-02-03T08:58:38.383Z,80.85
2023-02-03T09:08:38.089Z,80.82
2023-02-03T09:18:38.165Z,80.91
2023-02-03T09:28:38.189Z,80.89
2023-02-03T09:38:38.129Z,81.04
2023-02-03T09:48:38.330Z,81.18
2023-02-03T09:58:38.193Z,81.13
2023-02-03T10:08:38.211Z,81.15
2023-02-03T10:18:38.309Z,81.05
2023-02-03T10:28:38.900Z,81.01
2023-02-03T10:38:39.211Z,80.94
2023-02-03T10:48:39.260Z,80.90
2023-02-03T10:58:39.230Z,80.92
2023-02-03T11:08:39.245Z,80.86
2023-02-03T11:18:39.285Z,80.90
2023-02-03T11:28:39.245Z,81.01
2023-02-03T11:38:41.246Z,80.97
2023-02-03T11:48:41.321Z,80.95
2023-02-03T11:58:41.273Z,80.97
2023-02-03T12:08:41.387Z,80.90
2023-02-03T12:18:41.726Z,80.83
2023-02-03T12:28:42.407Z,80.80
2023-02-03T12:38:42.441Z,80.73
2023-02-03T12:48:42.459Z,80.76
2023-02-03T12:58:42.361Z,80.68
2023-02-03T13:08:42.377Z,80.60
2023-02-03T13:18:42.390Z,80.55
2023-02-03T13:28:42.464Z,80.32
2023-02-03T13:38:42.455Z,80.15
2023-02-03T13:48:43.088Z,79.74
2023-02-03T13:58:43.503Z,79.84
2023-02-03T14:08:43.576Z,79.99
2023-02-03T14:18:43.765Z,80.05
2023-02-03T14:28:43.504Z,80.09
2023-02-03T14:38:43.600Z,80.33
2023-02-03T14:48:43.513Z,80.56
2023-02-03T14:58:43.924Z,80.78
2023-02-03T15:08:44.578Z,80.88
2023-02-03T15:18:44.830Z,81.27
2023-02-03T15:28:44.654Z,81.56
2023-02-03T15:38:44.582Z,81.71
2023-02-03T15:48:44.556Z,81.86
2023-02-03T15:58:44.735Z,81.95
2023-02-03T16:08:45.732Z,81.96
2023-02-03T16:18:45.922Z,82.06
2023-02-03T16:29:04.074Z,82.17
2023-02-03T16:39:22.968Z,82.11
2023-02-03T16:49:40.946Z,82.03
2023-02-03T16:59:40.765Z,81.99
2023-02-03T17:09:40.692Z,81.96
2023-02-03T17:19:40.705Z,81.93
2023-02-03T17:29:41.062Z,81.97
2023-02-03T18:00:17.814Z,82.20
2023-02-03T18:10:17.734Z,82.19
2023-02-03T18:20:17.856Z,82.33
2023-02-03T18:30:19.709Z,82.33
2023-02-03T18:40:19.769Z,82.40
2023-02-03T18:50:19.752Z,82.37
2023-02-03T19:00:20.280Z,82.37
2023-02-03T19:10:20.784Z,82.44
2023-02-03T19:20:20.903Z,82.43
2023-02-03T19:30:21.561Z,82.31
2023-02-03T19:40:21.870Z,82.25
2023-02-03T19:50:21.841Z,82.19
2023-02-03T20:00:21.918Z,82.17
2023-02-03T20:10:21.900Z,82.12
2023-02-03T20:20:21.946Z,82.07
2023-02-03T20:30:22.022Z,81.99
2023-02-03T20:40:22.492Z,82.01
2023-02-03T20:50:28.923Z,81.93
2023-02-03T21:00:24.997Z,81.89
2023-02-03T21:10:25.011Z,81.93
2023-02-03T21:20:25.188Z,81.88
2023-02-03T21:30:26.915Z,81.89
2023-02-03T21:40:27.144Z,81.89
2023-02-03T21:50:27.184Z,81.77
2023-02-03T22:00:27.116Z,81.76
2023-02-03T22:10:27.064Z,81.57
2023-02-03T22:20:27.128Z,81.46
2023-02-03T22:30:27.132Z,81.36
2023-02-03T22:40:27.104Z,81.18
2023-02-03T22:50:34.982Z,81.02
2023-02-03T23:00:29.492Z,80.92
2023-02-03T23:10:30.974Z,80.82
2023-02-03T23:20:31.428Z,80.69
2023-02-03T23:30:33.897Z,80.56
2023-02-03T23:40:34.154Z,80.47
2023-02-03T23:50:34.145Z,80.38
